createdAt,value
2022-09-17T00:01:42.739Z,96985.63
2022-09-17T00:04:12.042Z,96986.00
2022-09-17T00:06:41.736Z,96981.50
2022-09-17T00:09:10.640Z,96969.81
2022-09-17T00:11:42.038Z,96971.88
2022-09-17T00:14:17.153Z,96966.25
2022-09-17T00:16:47.786Z,96969.56
2022-09-17T00:19:19.131Z,96967.09
2022-09-17T00:21:48.914Z,96969.94
2022-09-17T00:24:19.078Z,96971.59
2022-09-17T00:26:47.987Z,96977.28
2022-09-17T00:29:16.690Z,96980.78
2022-09-17T00:31:45.029Z,96980.13
2022-09-17T00:34:13.350Z,96977.66
2022-09-17T00:36:41.895Z,96974.00
2022-09-17T00:39:15.581Z,96974.97
2022-09-17T00:41:44.732Z,96979.50
2022-09-17T00:44:44.716Z,96989.50
2022-09-17T00:47:20.919Z,96986.19
2022-09-17T00:49:53.147Z,96999.50
2022-09-17T00:52:26.399Z,96992.72
2022-09-17T00:55:02.668Z,96998.88
2022-09-17T00:57:32.398Z,96998.88
2022-09-17T01:00:00.691Z,97000.06
2022-09-17T01:02:29.122Z,97001.06
2022-09-17T01:04:57.401Z,97014.56
2022-09-17T01:07:48.029Z,97011.25
2022-09-17T01:11:14.775Z,97010.63
2022-09-17T01:14:00.465Z,97015.31
2022-09-17T01:16:36.267Z,97011.19
2022-09-17T01:19:30.471Z,97011.19
2022-09-17T01:22:05.271Z,97010.34
2022-09-17T01:24:50.749Z,97007.03
2022-09-17T01:27:56.310Z,97009.50
2022-09-17T01:30:38.762Z,97006.03
2022-09-17T01:33:16.412Z,97013.84
2022-09-17T01:35:54.131Z,97021.84
2022-09-17T01:38:30.164Z,97024.31
2022-09-17T01:41:06.641Z,97019.97
2022-09-17T01:43:43.771Z,97013.84
2022-09-17T01:46:20.793Z,97020.16
2022-09-17T01:48:53.517Z,97019.34
2022-09-17T01:51:25.841Z,97030.00
2022-09-17T01:54:00.575Z,97027.88
2022-09-17T01:56:34.745Z,97024.38
2022-09-17T01:59:09.052Z,97037.53
2022-09-17T02:01:42.655Z,97032.59
2022-09-17T02:04:16.110Z,97025.16
2022-09-17T02:06:49.270Z,97029.66
2022-09-17T02:09:22.478Z,97020.19
2022-09-17T02:11:55.958Z,97024.03
2022-09-17T02:14:28.803Z,97022.75
2022-09-17T02:17:06.130Z,97023.75
2022-09-17T02:19:38.143Z,97034.59
2022-09-17T02:22:17.326Z,97027.59
2022-09-17T02:24:55.149Z,97031.25
2022-09-17T02:27:36.068Z,97026.97
2022-09-17T02:30:05.554Z,97028.97
2022-09-17T02:32:35.344Z,97027.31
2022-09-17T02:35:03.624Z,97014.38
2022-09-17T02:37:31.862Z,97009.41
2022-09-17T02:40:00.292Z,97009.56
2022-09-17T02:42:43.175Z,97007.44
2022-09-17T02:45:22.828Z,97001.00
2022-09-17T02:48:18.205Z,96996.38
2022-09-17T02:51:15.326Z,96987.28
2022-09-17T02:53:56.854Z,96999.13
2022-09-17T02:56:35.172Z,96996.50
2022-09-17T02:59:16.964Z,96992.38
2022-09-17T03:01:49.614Z,96995.38
2022-09-17T03:04:22.481Z,96991.44
2022-09-17T03:06:53.256Z,96992.78
2022-09-17T03:09:21.461Z,96981.50
2022-09-17T03:11:49.838Z,96985.16
2022-09-17T03:14:20.689Z,96980.19
2022-09-17T03:16:49.130Z,96977.06
2022-09-17T03:19:18.661Z,96977.13
2022-09-17T03:21:46.900Z,96966.66
2022-09-17T03:24:15.090Z,96960.69
2022-09-17T03:26:43.922Z,96967.97
2022-09-17T03:29:12.131Z,96962.00
2022-09-17T03:31:40.462Z,96959.34
2022-09-17T03:34:08.847Z,96952.38
2022-09-17T03:36:38.451Z,96948.88
2022-09-17T03:39:07.020Z,96952.56
2022-09-17T03:41:35.213Z,96955.22
2022-09-17T03:44:04.366Z,96960.72
2022-09-17T03:46:32.764Z,96977.66
2022-09-17T03:49:01.239Z,96983.16
2022-09-17T03:51:29.499Z,96979.66
2022-09-17T03:53:59.166Z,96980.00
2022-09-17T03:56:27.781Z,96974.88
2022-09-17T03:59:00.174Z,96976.88
2022-09-17T04:01:30.213Z,96978.72
2022-09-17T04:03:58.551Z,96963.75
2022-09-17T04:06:26.840Z,96972.75
2022-09-17T04:08:55.119Z,96978.06
2022-09-17T04:11:24.918Z,96983.19
2022-09-17T04:13:53.133Z,96978.53
2022-09-17T04:16:21.376Z,96983.84
2022-09-17T04:18:49.706Z,96978.88
2022-09-17T04:21:17.933Z,96983.38
2022-09-17T04:23:46.120Z,96979.53
2022-09-17T04:26:14.611Z,96975.88
2022-09-17T04:28:44.215Z,96978.53
2022-09-17T04:31:12.446Z,96972.88
2022-09-17T04:33:40.661Z,96975.53
2022-09-17T04:36:08.921Z,96969.38
2022-09-17T04:38:37.161Z,96968.19
2022-09-17T04:41:07.954Z,96982.16
2022-09-17T04:43:36.247Z,96969.88
2022-09-17T04:46:06.314Z,96969.69
2022-09-17T04:48:34.566Z,96978.47
2022-09-17T04:51:02.746Z,96981.13
2022-09-17T04:53:30.951Z,97004.88
2022-09-17T04:55:59.247Z,97023.50
2022-09-17T04:58:27.500Z,97029.66
2022-09-17T05:00:55.735Z,97039.44
2022-09-17T05:03:25.439Z,97058.06
2022-09-17T05:05:53.690Z,97067.72
2022-09-17T05:08:23.900Z,97061.38
2022-09-17T05:10:52.549Z,97066.53
2022-09-17T05:13:20.773Z,97074.31
2022-09-17T05:15:49.164Z,97075.19
2022-09-17T05:18:17.444Z,97068.88
2022-09-17T05:20:46.990Z,97059.88
2022-09-17T05:23:15.209Z,97053.59
2022-09-17T05:25:43.420Z,97060.53
2022-09-17T05:28:11.627Z,97059.34
2022-09-17T05:30:39.843Z,97063.66
2022-09-17T05:33:08.374Z,97069.81
2022-09-17T05:35:37.006Z,97069.47
2022-09-17T05:38:07.654Z,97073.94
2022-09-17T05:40:37.606Z,97077.44
2022-09-17T05:43:08.190Z,97080.28
2022-09-17T05:45:37.551Z,97093.22
2022-09-17T05:48:14.714Z,97099.72
2022-09-17T05:50:43.324Z,97105.69
2022-09-17T05:53:15.298Z,97107.53
2022-09-17T05:55:43.802Z,97109.19
2022-09-17T05:58:13.557Z,97110.53
2022-09-17T06:00:42.691Z,97123.50
2022-09-17T06:03:13.007Z,97120.16
2022-09-17T06:05:41.340Z,97131.66
2022-09-17T06:08:09.875Z,97134.66
2022-09-17T06:10:40.188Z,97144.94
2022-09-17T06:13:08.562Z,97139.44
2022-09-17T06:15:36.825Z,97135.78
2022-09-17T06:18:05.215Z,97132.78
2022-09-17T06:20:33.846Z,97126.28
2022-09-17T06:23:02.030Z,97121.63
2022-09-17T06:25:31.770Z,97114.94
2022-09-17T06:28:04.005Z,97123.59
2022-09-17T06:30:32.209Z,97126.56
2022-09-17T06:33:02.587Z,97114.91
2022-09-17T06:35:31.199Z,97122.53
2022-09-17T06:37:59.392Z,97127.53
2022-09-17T06:40:27.754Z,97130.19
2022-09-17T06:43:00.060Z,97127.53
2022-09-17T06:45:28.898Z,97127.16
2022-09-17T06:47:57.454Z,97126.81
2022-09-17T06:50:26.090Z,97122.97
2022-09-17T06:52:55.773Z,97121.31
2022-09-17T06:55:24.102Z,97117.13
2022-09-17T06:57:52.326Z,97107.69
2022-09-17T07:00:22.168Z,97117.97
2022-09-17T07:02:57.781Z,97112.47
2022-09-17T07:05:26.650Z,97111.81
2022-09-17T07:07:55.315Z,97111.34
2022-09-17T07:10:24.395Z,97099.53
2022-09-17T07:12:52.615Z,97092.72
2022-09-17T07:15:22.762Z,97094.19
2022-09-17T07:17:51.521Z,97087.69
2022-09-17T07:20:19.935Z,97080.38
2022-09-17T07:22:56.322Z,97083.19
2022-09-17T07:25:24.848Z,97073.84
2022-09-17T07:27:53.119Z,97073.00
2022-09-17T07:30:22.934Z,97072.66
2022-09-17T07:32:51.221Z,97067.50
2022-09-17T07:35:19.408Z,97072.47
2022-09-17T07:37:47.872Z,97067.81
2022-09-17T07:40:16.310Z,97072.97
2022-09-17T07:42:44.571Z,97076.47
2022-09-17T07:45:12.793Z,97074.25
2022-09-17T07:47:44.308Z,97084.09
2022-09-17T07:50:12.568Z,97093.19
2022-09-17T07:52:46.998Z,97087.03
2022-09-17T07:55:15.941Z,97104.97
2022-09-17T07:57:44.187Z,97099.94
2022-09-17T08:00:14.872Z,97100.78
2022-09-17T08:02:44.598Z,97098.56
2022-09-17T08:05:12.938Z,97107.41
2022-09-17T08:07:41.185Z,97105.41
2022-09-17T08:10:10.620Z,97104.38
2022-09-17T08:12:38.903Z,97113.03
2022-09-17T08:15:08.656Z,97110.38
2022-09-17T08:17:38.033Z,97104.03
2022-09-17T08:20:09.481Z,97100.34
2022-09-17T08:22:37.701Z,97116.44
2022-09-17T08:25:06.968Z,97110.09
2022-09-17T08:27:35.283Z,97116.91
2022-09-17T08:30:03.541Z,97124.09
2022-09-17T08:32:32.039Z,97124.25
2022-09-17T08:35:00.307Z,97130.75
2022-09-17T08:37:41.319Z,97132.47
2022-09-17T08:40:16.701Z,97135.03
2022-09-17T08:42:56.605Z,97134.03
2022-09-17T08:45:26.396Z,97142.38
2022-09-17T08:47:57.361Z,97146.41
2022-09-17T08:50:32.181Z,97152.06
2022-09-17T08:53:18.964Z,97158.28
2022-09-17T08:55:53.219Z,97164.47
2022-09-17T08:59:09.091Z,97163.19
2022-09-17T09:01:44.921Z,97162.88
2022-09-17T09:04:56.998Z,97158.44
2022-09-17T09:07:28.962Z,97165.94
2022-09-17T09:10:13.499Z,97163.28
2022-09-17T09:12:43.091Z,97155.31
2022-09-17T09:15:30.322Z,97156.28
2022-09-17T09:18:03.166Z,97156.28
2022-09-17T09:20:42.606Z,97159.63
2022-09-17T09:23:19.997Z,97157.78
2022-09-17T09:26:04.494Z,97164.09
2022-09-17T09:28:55.732Z,97172.56
2022-09-17T09:31:40.244Z,97168.09
2022-09-17T09:34:10.465Z,97176.72
2022-09-17T09:36:40.491Z,97172.41
2022-09-17T09:39:19.309Z,97184.84
2022-09-17T09:41:54.480Z,97188.53
2022-09-17T09:44:26.431Z,97186.03
2022-09-17T09:47:19.974Z,97184.41
2022-09-17T09:50:06.655Z,97189.06
2022-09-17T09:52:52.785Z,97184.75
2022-09-17T09:55:49.274Z,97190.22
2022-09-17T09:58:30.339Z,97196.19
2022-09-17T10:00:58.560Z,97194.38
2022-09-17T10:03:32.186Z,97189.06
2022-09-17T10:06:04.039Z,97189.88
2022-09-17T10:08:36.418Z,97192.56
2022-09-17T10:11:07.724Z,97195.22
2022-09-17T10:13:38.764Z,97192.56
2022-09-17T10:16:19.960Z,97203.19
2022-09-17T10:18:49.841Z,97200.03
2022-09-17T10:21:24.202Z,97200.88
2022-09-17T10:23:52.579Z,97202.69
2022-09-17T10:26:27.252Z,97208.88
2022-09-17T10:29:00.183Z,97200.72
2022-09-17T10:31:28.469Z,97210.22
2022-09-17T10:34:02.584Z,97204.06
2022-09-17T10:36:41.306Z,97205.06
2022-09-17T10:39:32.593Z,97205.59
2022-09-17T10:42:02.503Z,97194.09
2022-09-17T10:44:34.710Z,97193.94
2022-09-17T10:47:13.296Z,97188.44
2022-09-17T10:49:44.576Z,97184.59
2022-09-17T10:52:23.247Z,97183.47
2022-09-17T10:55:23.956Z,97189.59
2022-09-17T10:58:15.716Z,97184.94
2022-09-17T11:01:00.165Z,97179.09
2022-09-17T11:03:52.763Z,97180.56
2022-09-17T11:06:54.677Z,97182.38
2022-09-17T11:09:37.235Z,97179.69
2022-09-17T11:12:25.591Z,97172.00
2022-09-17T11:15:02.244Z,97167.00
2022-09-17T11:18:01.153Z,97170.25
2022-09-17T11:20:58.502Z,97170.22
2022-09-17T11:24:03.005Z,97159.53
2022-09-17T11:26:38.876Z,97159.63
2022-09-17T11:29:27.925Z,97161.41
2022-09-17T11:32:05.481Z,97152.72
2022-09-17T11:34:39.175Z,97156.34
2022-09-17T11:37:13.462Z,97156.66
2022-09-17T11:39:48.714Z,97148.97
2022-09-17T11:42:24.216Z,97152.75
2022-09-17T11:44:56.245Z,97151.19
2022-09-17T11:47:31.963Z,97130.66
2022-09-17T11:50:07.684Z,97146.06
2022-09-17T11:52:41.681Z,97136.72
2022-09-17T11:55:22.719Z,97131.84
2022-09-17T11:57:56.101Z,97135.16
2022-09-17T12:00:24.442Z,97143.34
2022-09-17T12:02:59.729Z,97135.34
2022-09-17T12:05:35.663Z,97134.13
2022-09-17T12:08:15.097Z,97134.31
2022-09-17T12:10:50.186Z,97133.59
2022-09-17T12:13:29.460Z,97127.34
2022-09-17T12:16:11.820Z,97122.25
2022-09-17T12:19:02.046Z,97112.13
2022-09-17T12:21:38.944Z,97116.00
2022-09-17T12:24:16.799Z,97112.44
2022-09-17T12:27:17.731Z,97110.66
2022-09-17T12:30:12.625Z,97112.59
2022-09-17T12:33:14.571Z,97118.56
2022-09-17T12:36:23.665Z,97112.88
2022-09-17T12:39:55.905Z,97112.69
2022-09-17T12:42:56.205Z,97104.13
2022-09-17T12:46:00.691Z,97096.94
2022-09-17T12:49:05.759Z,97103.13
2022-09-17T12:51:54.719Z,97098.22
2022-09-17T12:54:46.368Z,97098.31
2022-09-17T12:57:30.160Z,97097.19
2022-09-17T13:00:07.681Z,97092.56
2022-09-17T13:02:42.367Z,97096.31
2022-09-17T13:06:06.189Z,97100.91
2022-09-17T13:09:06.174Z,97096.91
2022-09-17T13:12:11.680Z,97093.47
2022-09-17T13:15:35.424Z,97092.72
2022-09-17T13:18:30.872Z,97085.94
2022-09-17T13:21:05.643Z,97077.97
2022-09-17T13:23:43.450Z,97080.44
2022-09-17T13:26:17.007Z,97076.78
2022-09-17T13:28:48.763Z,97071.84
2022-09-17T13:31:23.176Z,97071.44
2022-09-17T13:34:00.083Z,97073.25
2022-09-17T13:36:49.366Z,97074.09
2022-09-17T13:39:41.337Z,97068.50
2022-09-17T13:42:17.622Z,97071.16
2022-09-17T13:44:51.427Z,97072.94
2022-09-17T13:47:25.770Z,97065.59
2022-09-17T13:49:59.797Z,97055.53
2022-09-17T13:52:37.440Z,97062.13
2022-09-17T13:55:08.466Z,97064.03
2022-09-17T13:57:50.499Z,97058.88
2022-09-17T14:00:54.192Z,97061.84
2022-09-17T14:03:53.147Z,97066.03
2022-09-17T14:06:53.578Z,97072.78
2022-09-17T14:09:54.351Z,97074.53
2022-09-17T14:12:58.236Z,97071.47
2022-09-17T14:16:02.522Z,97071.28
2022-09-17T14:18:58.894Z,97067.63
2022-09-17T14:21:33.494Z,97058.44
2022-09-17T14:24:05.009Z,97056.81
2022-09-17T14:27:14.483Z,97050.59
2022-09-17T14:30:17.623Z,97055.59
2022-09-17T14:32:55.418Z,97059.09
2022-09-17T14:35:31.131Z,97055.94
2022-09-17T14:38:03.589Z,97063.72
2022-09-17T14:40:37.177Z,97051.38
2022-09-17T14:43:05.484Z,97079.56
2022-09-17T14:45:38.118Z,97079.47
2022-09-17T14:48:37.818Z,97065.03
2022-09-17T14:51:32.879Z,97058.75
2022-09-17T14:54:22.619Z,97067.56
2022-09-17T14:57:02.434Z,97072.88
2022-09-17T14:59:49.323Z,97088.22
2022-09-17T15:02:33.379Z,97091.88
2022-09-17T15:05:04.256Z,97097.78
2022-09-17T15:07:32.462Z,97102.22
2022-09-17T15:10:15.242Z,97092.47
2022-09-17T15:12:45.822Z,97106.00
2022-09-17T15:15:21.676Z,97107.41
2022-09-17T15:17:52.078Z,97099.78
2022-09-17T15:20:24.886Z,97099.31
2022-09-17T15:23:04.251Z,97099.09
2022-09-17T15:25:33.340Z,97102.13
2022-09-17T15:28:12.571Z,97100.88
2022-09-17T15:30:40.978Z,97113.56
2022-09-17T15:33:13.466Z,97117.00
2022-09-17T15:35:43.312Z,97116.53
2022-09-17T15:38:25.865Z,97124.75
2022-09-17T15:40:54.670Z,97127.78
2022-09-17T15:43:29.345Z,97123.00
2022-09-17T15:45:59.149Z,97120.72
2022-09-17T15:48:39.555Z,97115.13
2022-09-17T15:51:26.281Z,97103.16
2022-09-17T15:53:57.651Z,97094.06
2022-09-17T15:56:29.636Z,97112.94
2022-09-17T15:59:03.168Z,97110.63
2022-09-17T16:01:55.623Z,97114.69
2022-09-17T16:04:33.902Z,97115.72
2022-09-17T16:07:30.272Z,97138.25
2022-09-17T16:09:59.385Z,97140.47
2022-09-17T16:12:29.848Z,97153.72
2022-09-17T16:15:00.799Z,97163.16
2022-09-17T16:17:42.694Z,97162.44
2022-09-17T16:20:17.204Z,97168.19
2022-09-17T16:22:48.186Z,97177.41
2022-09-17T16:25:18.055Z,97177.94
2022-09-17T16:27:51.393Z,97189.69
2022-09-17T16:30:22.763Z,97177.75
2022-09-17T16:32:51.143Z,97180.78
2022-09-17T16:35:22.422Z,97176.59
2022-09-17T16:37:54.299Z,97177.31
2022-09-17T16:40:27.966Z,97180.34
2022-09-17T16:42:57.091Z,97175.19
2022-09-17T16:45:28.847Z,97174.56
2022-09-17T16:47:57.629Z,97169.59
2022-09-17T16:50:26.070Z,97179.41
2022-09-17T16:52:55.734Z,97169.28
2022-09-17T16:55:24.060Z,97172.81
2022-09-17T16:57:52.647Z,97177.47
2022-09-17T17:00:22.615Z,97176.66
2022-09-17T17:02:56.918Z,97172.50
2022-09-17T17:05:27.202Z,97166.38
2022-09-17T17:07:57.594Z,97163.88
2022-09-17T17:10:27.528Z,97168.38
2022-09-17T17:12:56.188Z,97165.69
2022-09-17T17:15:24.669Z,97162.38
2022-09-17T17:17:53.249Z,97162.56
2022-09-17T17:20:21.690Z,97169.91
2022-09-17T17:22:50.684Z,97168.25
2022-09-17T17:25:20.601Z,97166.78
2022-09-17T17:27:48.852Z,97175.78
2022-09-17T17:30:18.377Z,97173.47
2022-09-17T17:32:51.211Z,97172.81
2022-09-17T17:35:20.111Z,97174.00
2022-09-17T17:37:48.734Z,97179.50
2022-09-17T17:40:17.201Z,97180.66
2022-09-17T17:42:47.524Z,97190.84
2022-09-17T17:45:16.013Z,97199.19
2022-09-17T17:47:44.321Z,97203.00
2022-09-17T17:50:12.521Z,97205.38
2022-09-17T17:52:43.460Z,97212.88
2022-09-17T17:55:11.883Z,97209.94
2022-09-17T17:57:40.191Z,97214.78
2022-09-17T18:00:11.996Z,97208.31
2022-09-17T18:02:40.574Z,97214.00
2022-09-17T18:05:11.652Z,97213.50
2022-09-17T18:07:40.111Z,97219.16
2022-09-17T18:10:09.268Z,97227.31
2022-09-17T18:12:37.920Z,97226.84
2022-09-17T18:15:07.467Z,97230.69
2022-09-17T18:17:37.083Z,97235.34
2022-09-17T18:20:06.429Z,97232.84
2022-09-17T18:22:34.671Z,97244.69
2022-09-17T18:25:02.961Z,97239.69
2022-09-17T18:27:31.207Z,97232.91
2022-09-17T18:29:59.438Z,97236.91
2022-09-17T18:32:28.147Z,97233.59
2022-09-17T18:34:57.732Z,97235.56
2022-09-17T18:37:25.973Z,97234.09
2022-09-17T18:39:58.919Z,97239.41
2022-09-17T18:42:27.656Z,97245.09
2022-09-17T18:44:55.864Z,97245.44
2022-09-17T18:47:24.205Z,97248.44
2022-09-17T18:49:52.430Z,97244.28
2022-09-17T18:52:22.076Z,97248.75
2022-09-17T18:54:50.362Z,97243.78
2022-09-17T18:57:18.638Z,97250.47
2022-09-17T18:59:47.238Z,97240.78
2022-09-17T19:02:15.593Z,97242.81
2022-09-17T19:04:43.932Z,97241.31
2022-09-17T19:07:12.199Z,97241.47
2022-09-17T19:09:41.831Z,97243.50
2022-09-17T19:12:10.172Z,97241.81
2022-09-17T19:14:38.405Z,97237.69
2022-09-17T19:17:06.747Z,97252.16
2022-09-17T19:19:35.036Z,97261.13
2022-09-17T19:22:03.356Z,97256.94
2022-09-17T19:24:31.585Z,97266.94
2022-09-17T19:27:01.696Z,97267.91
2022-09-17T19:29:29.963Z,97274.41
2022-09-17T19:31:58.197Z,97272.25
2022-09-17T19:34:26.493Z,97276.53
2022-09-17T19:36:54.811Z,97277.72
2022-09-17T19:39:23.103Z,97278.72
2022-09-17T19:41:51.359Z,97281.38
2022-09-17T19:44:21.190Z,97288.34
2022-09-17T19:46:51.200Z,97306.44
2022-09-17T19:49:19.918Z,97312.09
2022-09-17T19:51:48.240Z,97309.28
2022-09-17T19:54:16.495Z,97304.63
2022-09-17T19:56:44.706Z,97308.78
2022-09-17T19:59:13.102Z,97302.50
2022-09-17T20:01:46.079Z,97299.81
2022-09-17T20:04:20.294Z,97291.00
2022-09-17T20:06:48.544Z,97291.34
2022-09-17T20:09:16.823Z,97292.00
2022-09-17T20:11:45.069Z,97286.84
2022-09-17T20:14:13.946Z,97287.34
2022-09-17T20:16:44.987Z,97284.69
2022-09-17T20:19:17.067Z,97282.88
2022-09-17T20:21:45.326Z,97273.03
2022-09-17T20:24:14.024Z,97280.22
2022-09-17T20:26:42.287Z,97277.56
2022-09-17T20:29:10.767Z,97282.19
2022-09-17T20:31:39.774Z,97287.53
2022-09-17T20:34:11.677Z,97285.03
2022-09-17T20:36:40.328Z,97277.06
2022-09-17T20:39:14.196Z,97276.38
2022-09-17T20:41:46.422Z,97282.69
2022-09-17T20:44:14.680Z,97287.34
2022-09-17T20:46:42.985Z,97283.03
2022-09-17T20:49:12.674Z,97280.53
2022-09-17T20:51:41.309Z,97270.41
2022-09-17T20:54:11.226Z,97275.38
2022-09-17T20:56:39.466Z,97279.91
2022-09-17T20:59:14.306Z,97278.88
2022-09-17T21:01:45.007Z,97273.75
2022-09-17T21:04:19.008Z,97279.06
2022-09-17T21:06:49.159Z,97275.56
2022-09-17T21:09:17.389Z,97280.06
2022-09-17T21:11:47.795Z,97279.06
2022-09-17T21:14:18.085Z,97275.56
2022-09-17T21:16:46.869Z,97277.06
2022-09-17T21:19:16.948Z,97277.88
2022-09-17T21:21:45.506Z,97271.59
2022-09-17T21:24:13.763Z,97264.59
2022-09-17T21:26:42.092Z,97269.91
2022-09-17T21:29:10.603Z,97268.94
2022-09-17T21:31:40.602Z,97274.25
2022-09-17T21:34:11.769Z,97269.41
2022-09-17T21:36:44.236Z,97271.09
2022-09-17T21:39:15.612Z,97271.91
2022-09-17T21:41:44.188Z,97268.44
2022-09-17T21:44:13.120Z,97277.03
2022-09-17T21:46:43.034Z,97268.44
2022-09-17T21:49:13.417Z,97271.09
2022-09-17T21:51:44.258Z,97272.91
2022-09-17T21:54:15.765Z,97278.22
2022-09-17T21:56:45.017Z,97279.06
2022-09-17T21:59:15.324Z,97281.88
2022-09-17T22:01:47.045Z,97282.69
2022-09-17T22:04:18.362Z,97275.06
2022-09-17T22:06:50.034Z,97281.03
2022-09-17T22:09:21.424Z,97280.19
2022-09-17T22:11:50.069Z,97281.03
2022-09-17T22:14:23.308Z,97282.22
2022-09-17T22:16:55.082Z,97275.22
2022-09-17T22:19:25.083Z,97279.06
2022-09-17T22:21:56.646Z,97280.69
2022-09-17T22:24:26.199Z,97275.38
2022-09-17T22:26:58.052Z,97271.25
2022-09-17T22:29:28.498Z,97270.25
2022-09-17T22:31:57.231Z,97274.75
2022-09-17T22:34:25.940Z,97269.09
2022-09-17T22:36:55.581Z,97273.91
2022-09-17T22:39:23.879Z,97272.09
2022-09-17T22:41:52.454Z,97277.41
2022-09-17T22:44:21.854Z,97276.41
2022-09-17T22:46:52.042Z,97273.41
2022-09-17T22:49:20.942Z,97267.09
2022-09-17T22:51:49.225Z,97273.41
2022-09-17T22:54:20.134Z,97275.41
2022-09-17T22:56:49.191Z,97265.75
2022-09-17T22:59:18.739Z,97273.09
2022-09-17T23:01:47.175Z,97273.25
2022-09-17T23:04:15.484Z,97271.41
2022-09-17T23:06:43.709Z,97270.44
2022-09-17T23:09:13.985Z,97274.56
2022-09-17T23:11:46.662Z,97281.56
2022-09-17T23:14:18.284Z,97284.88
2022-09-17T23:16:48.890Z,97284.19
2022-09-17T23:19:18.739Z,97292.00
2022-09-17T23:21:47.672Z,97295.00
2022-09-17T23:24:20.229Z,97304.81
2022-09-17T23:26:50.798Z,97311.59
2022-09-17T23:29:19.707Z,97309.94
2022-09-17T23:31:47.978Z,97311.78
2022-09-17T23:34:16.328Z,97317.75
2022-09-17T23:36:44.860Z,97314.25
2022-09-17T23:39:13.280Z,97316.06
2022-09-17T23:41:45.414Z,97317.25
2022-09-17T23:44:16.492Z,97316.06
2022-09-17T23:46:46.063Z,97317.09
2022-09-17T23:49:15.971Z,97311.78
2022-09-17T23:51:45.587Z,97320.06
2022-09-17T23:54:13.891Z,97323.56
2022-09-17T23:56:42.286Z,97325.22
2022-09-17T23:59:11.666Z,97325.34
